North Platte, NE

12:20 AM CST on February 12, 2016 (GMT -0600)
APRSWXNET | | Change Station
CLOSE
Current Station
Personal Weather Station
Location: North Platte, NE
Elevation: 2811 ft
Nearby Weather Stations
Active Advisory: Special Statement

Elev 2811 ft 41.13 °N, 100.75 °W | Updated 25 minutes ago

Clear
Clear
37 °F
Feels Like 34 °F
N
4
Wind Variable Wind from NNW
Gusts 10.0 mph

Today
High -- | Low -- °F
--% Chance of Precip.
Yesterday
High -- | Low -- °F
Precip. -- in
Pressure 30.28 in
Visibility 10.0 miles
Clouds Clear
Windchill 34 °F
Dew Point 31 °F
Humidity 78%
Rainfall in
Snow Depth Not available.
7:41 AM 6:12 PM
Waxing Crescent, 18% visible
METAR KLBF 120553Z AUTO 32006KT 10SM CLR 02/M02 A3022 RMK AO2 SLP254 T00171017 10072 20000 401171056 51020
Pressure 30.28 in
Visibility 10.0 miles
Clouds Clear
Windchill 34 °F
Dew Point 31 °F
Humidity 78%
Rainfall in
Snow Depth Not available.
7:41 AM 6:12 PM
Waxing Crescent, 18% visible
METAR KLBF 120553Z AUTO 32006KT 10SM CLR 02/M02 A3022 RMK AO2 SLP254 T00171017 10072 20000 401171056 51020

10-Day Weather Forecast

Almanac

Astronomy

Feb. 12, 2016 Rise Set
Actual Time
Civil Twilight
Nautical Twilight
Astronomical Twilight
Moon
Length of Visible Light
Length of Day
Tomorrow will be .
, % of the Moon is Illuminated

Today's Extremes

State Highs State Lows

Community

WunderPhotos

Upload Photos

1,892,273 photos uploaded!

WunderBlog® & News

Nearby

Air Quality

  Air Quality AQ Index Pollutant
Not available.

Snow Depth

Station Depth Elevation

Earthquake Activity

City Distance Mag. Time & Date
Minimum magnitude displayed is 2.5.

Coastal Water Temperatures

Place Temperature

Stations

Nearby Weather Stations

Station Location Temp. Windchill Dew Point Humidity Wind Precip. Elev Updated Type
                   

Watches & Warnings

Special Statement
Issued: 1:34 PM MST Feb. 11, 2016 – National Weather Service

... Patchy freezing drizzle possible tonight... then again Friday
night into midday Saturday...

An Arctic cold front will track west from northeastern
Nebraska... into central and western Nebraska tonight into Friday.
As this front backs into western and north central Nebraska from
the east... patchy freezing drizzle may develop across the area.
This front will stall across the Nebraska Panhandle Friday
night... then lift east on Saturday. As this front lifts east as a
warm front... patchy freezing drizzle will be possible once again
from the overnight hours Friday night... into Saturday morning.

Motorists planning travel tonight into tomorrow morning... as well
as Friday night into Saturday morning... should be prepared for
possible slick spots on roadways.


Clb